createdAt,value
2016-03-16T00:00:45.434Z,78.2
2016-03-16T00:01:45.437Z,78.39
2016-03-16T00:02:45.440Z,78.2
2016-03-16T00:03:45.427Z,78.2
2016-03-16T00:04:45.430Z,78.39
2016-03-16T00:05:45.416Z,78.2
2016-03-16T00:06:45.435Z,78.01
2016-03-16T00:07:45.421Z,77.82
2016-03-16T00:08:45.424Z,78.01
2016-03-16T00:09:45.427Z,77.53
2016-03-16T00:10:45.430Z,77.44
2016-03-16T00:11:45.417Z,77.06
2016-03-16T00:12:45.451Z,77.34
2016-03-16T00:13:45.422Z,77.53
2016-03-16T00:14:45.425Z,76.68
2016-03-16T00:15:45.413Z,76.82
2016-03-16T00:16:45.415Z,77.39
2016-03-16T00:17:45.402Z,77.01
2016-03-16T00:18:45.404Z,77.39
2016-03-16T00:19:45.398Z,77.39
2016-03-16T00:20:45.389Z,78.05
2016-03-16T00:21:45.379Z,77.58
2016-03-16T00:22:45.354Z,77.86
2016-03-16T00:23:45.330Z,77.67
2016-03-16T00:24:45.342Z,77.86
2016-03-16T00:25:45.325Z,77.86
2016-03-16T00:26:45.324Z,77.86
2016-03-16T00:27:45.322Z,77.76
2016-03-16T00:28:45.321Z,78.05
2016-03-16T00:29:45.305Z,77.39
2016-03-16T00:30:45.310Z,77.58
2016-03-16T00:31:45.311Z,77.86
2016-03-16T00:32:45.297Z,77.76
2016-03-16T00:33:45.297Z,77.86
2016-03-16T00:34:45.285Z,77.76
2016-03-16T00:35:45.287Z,78.05
2016-03-16T00:36:45.290Z,78.05
2016-03-16T00:37:45.292Z,77.95
2016-03-16T00:38:45.294Z,77.29
2016-03-16T00:39:45.280Z,77.58
2016-03-16T00:40:45.268Z,77.48
2016-03-16T00:41:45.270Z,77.01
2016-03-16T00:42:45.272Z,77.2
2016-03-16T00:43:45.275Z,77.39
2016-03-16T00:44:45.261Z,77.2
2016-03-16T00:45:45.264Z,77.1
2016-03-16T00:46:45.266Z,77.2
2016-03-16T00:47:45.253Z,77.58
2016-03-16T00:48:45.256Z,77.48
2016-03-16T00:49:45.259Z,77.48
2016-03-16T00:50:45.261Z,77.67
2016-03-16T00:51:45.249Z,78.14
2016-03-16T00:52:45.299Z,77.39
2016-03-16T00:53:45.254Z,77.39
2016-03-16T00:54:45.272Z,77.76
2016-03-16T00:55:45.244Z,77.58
2016-03-16T00:56:45.309Z,77.58
2016-03-16T00:57:45.249Z,77.58
2016-03-16T00:58:45.237Z,77.58
2016-03-16T00:59:45.239Z,77.58
2016-03-16T01:00:45.242Z,77.58
2016-03-16T01:01:45.244Z,77.29
2016-03-16T01:02:45.232Z,77.67
2016-03-16T01:03:45.250Z,77.48
2016-03-16T01:04:45.238Z,77.58
2016-03-16T01:05:45.240Z,77.76
2016-03-16T01:06:45.087Z,77.2
2016-03-16T01:07:45.233Z,77.39
2016-03-16T01:08:45.220Z,77.58
2016-03-16T01:09:45.238Z,77.67
2016-03-16T01:10:45.224Z,77.2
2016-03-16T01:11:45.227Z,77.29
2016-03-16T01:12:45.215Z,77.01
2016-03-16T01:13:45.222Z,77.01
2016-03-16T01:14:45.225Z,77.01
2016-03-16T01:15:45.212Z,77.48
2016-03-16T01:16:45.214Z,77.58
2016-03-16T01:17:45.218Z,77.76
2016-03-16T01:18:45.204Z,77.48
2016-03-16T01:19:45.207Z,77.67
2016-03-16T01:20:45.053Z,77.48
2016-03-16T01:21:45.198Z,77.76
2016-03-16T01:22:45.200Z,77.58
2016-03-16T01:23:45.218Z,77.39
2016-03-16T01:24:45.206Z,77.2
2016-03-16T01:25:45.208Z,76.72
2016-03-16T01:26:45.211Z,76.72
2016-03-16T01:27:45.198Z,77.2
2016-03-16T01:28:45.200Z,77.58
2016-03-16T01:29:45.188Z,77.29
2016-03-16T01:30:45.190Z,76.72
2016-03-16T01:31:45.193Z,76.91
2016-03-16T01:32:45.180Z,77.67
2016-03-16T01:33:45.183Z,77.39
2016-03-16T01:34:45.185Z,77.29
2016-03-16T01:35:45.188Z,77.29
2016-03-16T01:36:45.175Z,77.39
2016-03-16T01:37:45.178Z,77.2
2016-03-16T01:38:45.180Z,77.2
2016-03-16T01:39:45.183Z,77.29
2016-03-16T01:40:45.186Z,76.82
2016-03-16T01:41:45.173Z,77.01
2016-03-16T01:42:45.176Z,76.15
2016-03-16T01:43:45.162Z,76.44
2016-03-16T01:44:45.181Z,76.34
2016-03-16T01:45:45.168Z,75.87
2016-03-16T01:46:45.154Z,75.87
2016-03-16T01:47:45.173Z,75.78
2016-03-16T01:48:45.160Z,75.87
2016-03-16T01:49:45.163Z,76.06
2016-03-16T01:50:45.165Z,75.87
2016-03-16T01:51:45.153Z,76.15
2016-03-16T01:52:45.140Z,76.15
2016-03-16T01:53:45.159Z,76.25
2016-03-16T01:54:45.005Z,76.34
2016-03-16T01:55:45.148Z,76.53
2016-03-16T01:56:45.151Z,76.06
2016-03-16T01:57:45.139Z,76.63
2016-03-16T01:58:45.156Z,76.44
2016-03-16T01:59:45.144Z,76.44
2016-03-16T02:00:45.131Z,76.63
2016-03-16T02:01:45.149Z,76.63
2016-03-16T02:02:45.136Z,76.63
2016-03-16T02:03:45.139Z,76.82
2016-03-16T02:04:45.000Z,76.82
2016-03-16T02:05:45.144Z,76.82
2016-03-16T02:06:45.130Z,76.53
2016-03-16T02:07:45.132Z,76.53
2016-03-16T02:08:45.120Z,76.63
2016-03-16T02:09:45.138Z,76.53
2016-03-16T02:10:45.125Z,76.72
2016-03-16T02:11:45.143Z,77.1
2016-03-16T02:12:45.131Z,77.01
2016-03-16T02:13:45.118Z,76.91
2016-03-16T02:14:45.120Z,76.72
2016-03-16T02:15:45.107Z,77.39
2016-03-16T02:16:45.111Z,77.39
2016-03-16T02:17:45.113Z,77.39
2016-03-16T02:18:45.116Z,77.1
2016-03-16T02:19:45.118Z,77.67
2016-03-16T02:20:45.107Z,77.1
2016-03-16T02:21:45.109Z,77.29
2016-03-16T02:22:45.096Z,77.2
2016-03-16T02:23:45.098Z,77.29
2016-03-16T02:24:45.101Z,77.29
2016-03-16T02:25:45.089Z,77.2
2016-03-16T02:26:45.091Z,77.39
2016-03-16T02:27:45.094Z,77.58
2016-03-16T02:28:45.096Z,77.39
2016-03-16T02:29:45.084Z,77.29
2016-03-16T02:30:45.086Z,77.01
2016-03-16T02:31:45.089Z,77.01
2016-03-16T02:32:45.092Z,77.1
2016-03-16T02:33:45.078Z,76.63
2016-03-16T02:34:45.097Z,76.53
2016-03-16T02:35:45.084Z,76.34
2016-03-16T02:36:45.072Z,75.68
2016-03-16T02:37:45.089Z,75.87
2016-03-16T02:38:45.077Z,75.49
2016-03-16T02:39:45.079Z,75.21
2016-03-16T02:40:45.066Z,75.21
2016-03-16T02:41:45.085Z,75.02
2016-03-16T02:42:45.072Z,75.49
2016-03-16T02:43:45.058Z,75.31
2016-03-16T02:44:45.077Z,75.31
2016-03-16T02:45:45.063Z,75.21
2016-03-16T02:46:45.066Z,75.31
2016-03-16T02:47:45.053Z,75.21
2016-03-16T02:48:45.072Z,75.59
2016-03-16T02:49:45.059Z,75.49
2016-03-16T02:50:45.062Z,75.21
2016-03-16T02:51:45.064Z,75.31
2016-03-16T02:52:45.051Z,75.68
2016-03-16T02:53:45.054Z,75.4
2016-03-16T02:54:45.057Z,75.49
2016-03-16T02:55:45.060Z,75.87
2016-03-16T02:56:45.047Z,75.96
2016-03-16T02:57:45.050Z,76.15
2016-03-16T02:58:45.052Z,76.34
2016-03-16T02:59:45.039Z,76.15
2016-03-16T03:00:45.026Z,76.53
2016-03-16T03:01:45.045Z,76.25
2016-03-16T03:02:45.031Z,76.34
2016-03-16T03:03:45.033Z,76.06
2016-03-16T03:04:45.036Z,75.21
2016-03-16T03:05:45.024Z,74.93
2016-03-16T03:06:45.042Z,75.12
2016-03-16T03:07:45.029Z,75.02
2016-03-16T03:08:45.032Z,74.74
2016-03-16T03:09:45.019Z,74.74
2016-03-16T03:10:45.022Z,74.74
2016-03-16T03:11:45.024Z,74.36
2016-03-16T03:12:45.027Z,74.64
2016-03-16T03:13:45.014Z,74.17
2016-03-16T03:14:45.017Z,73.69
2016-03-16T03:15:45.019Z,73.41
2016-03-16T03:16:45.021Z,73.88
2016-03-16T03:17:45.010Z,73.5
2016-03-16T03:18:45.012Z,73.69
2016-03-16T03:19:45.015Z,73.5
2016-03-16T03:20:45.002Z,74.45
2016-03-16T03:21:45.004Z,74.07
2016-03-16T03:22:44.992Z,74.26
2016-03-16T03:23:45.010Z,74.07
2016-03-16T03:24:44.997Z,74.64
2016-03-16T03:25:45.000Z,75.02
2016-03-16T03:26:45.003Z,74.83
2016-03-16T03:27:45.005Z,75.4
2016-03-16T03:28:45.008Z,75.68
2016-03-16T03:29:44.995Z,75.4
2016-03-16T03:30:44.982Z,75.31
2016-03-16T03:31:44.984Z,76.15
2016-03-16T03:32:44.987Z,76.06
2016-03-16T03:33:44.975Z,75.96
2016-03-16T03:34:44.978Z,75.4
2016-03-16T03:35:44.980Z,75.49
2016-03-16T03:36:44.982Z,74.74
2016-03-16T03:37:44.986Z,74.83
2016-03-16T03:38:44.972Z,74.55
2016-03-16T03:39:44.974Z,74.36
2016-03-16T03:40:44.977Z,74.26
2016-03-16T03:41:44.964Z,73.69
2016-03-16T03:42:44.967Z,73.5
2016-03-16T03:43:44.969Z,73.69
2016-03-16T03:44:44.972Z,73.13
2016-03-16T03:45:44.975Z,72.37
2016-03-16T03:46:44.963Z,72.85
2016-03-16T03:47:44.965Z,72.85
2016-03-16T03:48:44.952Z,72.56
2016-03-16T03:49:44.955Z,72.66
2016-03-16T03:50:44.957Z,73.03
2016-03-16T03:51:44.960Z,73.41
2016-03-16T03:52:44.947Z,73.88
2016-03-16T03:53:44.950Z,74.26
2016-03-16T03:54:44.952Z,74.55
2016-03-16T03:55:44.939Z,74.36
2016-03-16T03:56:44.942Z,74.83
2016-03-16T03:57:44.945Z,74.74
2016-03-16T03:58:44.948Z,74.64
2016-03-16T03:59:44.950Z,75.12
2016-03-16T04:00:44.937Z,75.21
2016-03-16T04:01:44.940Z,74.93
2016-03-16T04:03:10.568Z,74.45
2016-03-16T04:03:44.883Z,74.45
2016-03-16T04:04:44.885Z,73.6
2016-03-16T04:05:44.888Z,73.03
2016-03-16T04:06:44.875Z,72.56
2016-03-16T04:07:44.877Z,72.09
2016-03-16T04:08:44.911Z,71.61
2016-03-16T04:09:44.899Z,70.57
2016-03-16T04:10:44.902Z,70.76
2016-03-16T04:11:44.905Z,70.76
2016-03-16T04:12:44.907Z,70.57
2016-03-16T04:13:44.894Z,70.29
2016-03-16T04:14:44.865Z,70.2
2016-03-16T04:15:44.868Z,70.39
2016-03-16T04:16:44.855Z,70.48
2016-03-16T04:17:44.857Z,70.86
2016-03-16T04:18:44.860Z,70.95
2016-03-16T04:19:44.863Z,71.42
2016-03-16T04:20:44.851Z,71.14
2016-03-16T04:21:44.853Z,71.61
2016-03-16T04:22:44.857Z,71.23
2016-03-16T04:23:44.843Z,71.52
2016-03-16T04:24:44.845Z,72.09
2016-03-16T04:25:44.848Z,72.09
2016-03-16T04:26:44.851Z,72.28
2016-03-16T04:27:44.854Z,72.56
2016-03-16T04:28:44.840Z,72.85
2016-03-16T04:29:44.828Z,73.13
2016-03-16T04:30:44.831Z,72.94
2016-03-16T04:31:44.834Z,73.22
2016-03-16T04:32:44.836Z,72.56
2016-03-16T04:33:44.823Z,72.56
2016-03-16T04:34:44.842Z,73.41
2016-03-16T04:35:44.828Z,73.32
2016-03-16T04:36:44.831Z,73.22
2016-03-16T04:37:44.833Z,73.88
2016-03-16T04:38:44.822Z,73.79
2016-03-16T04:39:44.824Z,73.79
2016-03-16T04:40:44.811Z,73.88
2016-03-16T04:41:44.813Z,74.64
2016-03-16T04:42:44.816Z,74.45
2016-03-16T04:43:44.835Z,74.07
2016-03-16T04:44:44.806Z,74.36
2016-03-16T04:45:44.824Z,74.45
2016-03-16T04:46:44.811Z,74.41
2016-03-16T04:47:44.813Z,74.88
2016-03-16T04:48:44.801Z,74.26
2016-03-16T04:49:44.804Z,74.69
2016-03-16T04:50:44.807Z,74.41
2016-03-16T04:51:44.824Z,74.04
2016-03-16T04:52:44.796Z,74.22
2016-03-16T04:53:44.798Z,74.41
2016-03-16T04:54:44.785Z,74.22
2016-03-16T04:55:44.804Z,73.85
2016-03-16T04:56:44.791Z,73.5
2016-03-16T04:57:44.809Z,73.79
2016-03-16T04:58:44.796Z,73.47
2016-03-16T04:59:44.799Z,73.75
2016-03-16T05:00:44.801Z,73.79
2016-03-16T05:01:44.773Z,73.6
2016-03-16T05:02:44.792Z,73.69
2016-03-16T05:03:44.779Z,73.5
2016-03-16T05:04:44.781Z,73.41
2016-03-16T05:05:44.784Z,73.6
2016-03-16T05:06:44.839Z,73.41
2016-03-16T05:07:44.764Z,73.5
2016-03-16T05:08:44.751Z,73.69
2016-03-16T05:09:44.754Z,73.98
2016-03-16T05:10:44.756Z,73.88
2016-03-16T05:11:44.759Z,73.79
2016-03-16T05:12:44.761Z,73.69
2016-03-16T05:13:44.749Z,74.26
2016-03-16T05:14:44.752Z,74.36
2016-03-16T05:15:44.755Z,74.26
2016-03-16T05:16:44.742Z,74.17
2016-03-16T05:17:44.744Z,73.98
2016-03-16T05:18:44.747Z,74.17
2016-03-16T05:19:44.733Z,74.45
2016-03-16T05:20:44.752Z,74.45
2016-03-16T05:21:44.739Z,74.32
2016-03-16T05:22:44.741Z,74.55
2016-03-16T05:23:44.729Z,74.64
2016-03-16T05:24:44.732Z,74.74
2016-03-16T05:25:44.735Z,75.26
2016-03-16T05:26:44.722Z,75.26
2016-03-16T05:27:44.724Z,75.55
2016-03-16T05:28:44.727Z,76.02
2016-03-16T05:29:44.713Z,75.83
2016-03-16T05:30:44.732Z,76.12
2016-03-16T05:31:44.719Z,76.12
2016-03-16T05:32:44.721Z,75.74
2016-03-16T05:33:44.709Z,76.02
2016-03-16T05:34:44.727Z,76.12
2016-03-16T05:35:44.698Z,75.45
2016-03-16T05:36:44.717Z,75.36
2016-03-16T05:37:44.704Z,75.45
2016-03-16T05:38:44.707Z,75.45
2016-03-16T05:39:44.695Z,75.55
2016-03-16T05:40:44.712Z,75.74
2016-03-16T05:41:44.700Z,75.74
2016-03-16T05:42:44.702Z,76.02
2016-03-16T05:43:44.689Z,75.45
2016-03-16T05:44:44.692Z,75.93
2016-03-16T05:45:44.694Z,76.02
2016-03-16T05:46:44.681Z,76.31
2016-03-16T05:47:44.699Z,76.5
2016-03-16T05:48:44.686Z,76.5
2016-03-16T05:49:44.689Z,75.83
2016-03-16T05:50:44.677Z,75.83
2016-03-16T05:51:44.680Z,75.83
2016-03-16T05:52:44.682Z,75.36
2016-03-16T05:53:44.685Z,75.21
2016-03-16T05:54:44.671Z,75.31
2016-03-16T05:55:44.674Z,74.74
2016-03-16T05:56:44.661Z,75.12
2016-03-16T05:57:44.664Z,74.93
2016-03-16T05:58:44.667Z,74.64
2016-03-16T05:59:44.655Z,74.83
2016-03-16T06:00:44.672Z,74.74
2016-03-16T06:01:44.660Z,74.55
2016-03-16T06:02:44.663Z,74.17
2016-03-16T06:03:44.649Z,74.26
2016-03-16T06:04:44.652Z,73.79
2016-03-16T06:05:44.654Z,73.88
2016-03-16T06:06:44.657Z,73.69
2016-03-16T06:07:44.644Z,73.22
2016-03-16T06:08:44.647Z,73.41
2016-03-16T06:09:44.634Z,73.32
2016-03-16T06:10:44.636Z,73.03
2016-03-16T06:11:44.640Z,72.85
2016-03-16T06:12:44.658Z,72.94
2016-03-16T06:13:44.645Z,72.37
2016-03-16T06:14:44.632Z,72.37
2016-03-16T06:15:44.634Z,71.9
2016-03-16T06:16:44.622Z,71.71
2016-03-16T06:17:44.624Z,71.71
2016-03-16T06:18:44.627Z,71.8
2016-03-16T06:19:44.614Z,71.9
2016-03-16T06:20:44.632Z,70.95
2016-03-16T06:21:44.619Z,71.71
2016-03-16T06:22:44.622Z,71.52
2016-03-16T06:23:44.608Z,71.23
2016-03-16T06:24:44.628Z,71.9
2016-03-16T06:25:44.614Z,71.61
2016-03-16T06:26:44.633Z,71.42
2016-03-16T06:27:44.605Z,71.61
2016-03-16T06:28:44.608Z,71.14
2016-03-16T06:29:44.593Z,71.14
2016-03-16T06:30:44.612Z,70.86
2016-03-16T06:31:44.599Z,70.51
2016-03-16T06:32:44.602Z,69.57
2016-03-16T06:33:44.590Z,68.52
2016-03-16T06:34:44.607Z,68.15
2016-03-16T06:35:44.595Z,67.86
2016-03-16T06:36:44.597Z,66.57
2016-03-16T06:37:44.585Z,65.63
2016-03-16T06:38:44.587Z,64.68
2016-03-16T06:39:44.589Z,64.3
2016-03-16T06:40:44.576Z,64.87
2016-03-16T06:41:44.595Z,65.06
2016-03-16T06:42:44.581Z,65.63
2016-03-16T06:43:44.585Z,66.47
2016-03-16T06:44:44.572Z,66.47
2016-03-16T06:45:44.590Z,66.92
2016-03-16T06:46:44.578Z,67.39
2016-03-16T06:47:44.580Z,67.58
2016-03-16T06:48:44.583Z,67.58
2016-03-16T06:49:44.569Z,67.86
2016-03-16T06:50:44.572Z,67.86
2016-03-16T06:51:44.575Z,68.05
2016-03-16T06:52:44.562Z,68.43
2016-03-16T06:53:44.581Z,68.62
2016-03-16T06:54:44.567Z,68.24
2016-03-16T06:55:44.570Z,68.62
2016-03-16T06:56:44.557Z,68.52
2016-03-16T06:57:44.560Z,68.43
2016-03-16T06:58:44.562Z,68.33
2016-03-16T06:59:44.549Z,67.86
2016-03-16T07:00:44.583Z,67.86
2016-03-16T07:01:44.555Z,68.15
2016-03-16T07:02:44.558Z,68.52
2016-03-16T07:03:44.546Z,68.15
2016-03-16T07:04:44.548Z,68.62
2016-03-16T07:05:44.551Z,68.33
2016-03-16T07:06:44.554Z,68.52
2016-03-16T07:07:44.540Z,68.24
2016-03-16T07:08:44.543Z,67.86
2016-03-16T07:09:44.592Z,67.77
2016-03-16T07:10:44.548Z,67.58
2016-03-16T07:11:44.550Z,67.68
2016-03-16T07:12:44.553Z,67.11
2016-03-16T07:13:44.556Z,66.73
2016-03-16T07:14:44.542Z,65.97
2016-03-16T07:15:44.545Z,65.97
2016-03-16T07:16:44.548Z,65.78
2016-03-16T07:17:44.536Z,65.97
2016-03-16T07:18:44.601Z,65.5
2016-03-16T07:19:44.541Z,65.69
2016-03-16T07:20:44.544Z,65.02
2016-03-16T07:21:44.530Z,64.93
2016-03-16T07:22:44.549Z,64.74
2016-03-16T07:23:44.520Z,65.02
2016-03-16T07:24:44.539Z,64.64
2016-03-16T07:25:44.526Z,64.74
2016-03-16T07:26:44.545Z,64.83
2016-03-16T07:27:44.531Z,64.74
2016-03-16T07:28:44.519Z,64.93
2016-03-16T07:29:44.521Z,65.02
2016-03-16T07:30:44.524Z,65.12
2016-03-16T07:31:44.526Z,65.12
2016-03-16T07:32:44.513Z,65.12
2016-03-16T07:33:44.516Z,65.31
2016-03-16T07:34:44.518Z,64.93
2016-03-16T07:35:44.521Z,65.78
2016-03-16T07:36:44.509Z,65.69
2016-03-16T07:37:44.527Z,65.78
2016-03-16T07:38:44.515Z,65.5
2016-03-16T07:39:44.595Z,65.78
2016-03-16T07:40:44.520Z,65.5
2016-03-16T07:41:44.522Z,65.59
2016-03-16T07:42:44.509Z,65.31
2016-03-16T07:43:44.511Z,64.83
2016-03-16T07:44:44.498Z,64.55
2016-03-16T07:45:44.517Z,64.93
2016-03-16T07:46:44.503Z,64.93
2016-03-16T07:47:44.506Z,64.45
2016-03-16T07:48:44.494Z,64.17
2016-03-16T07:49:44.512Z,63.89
2016-03-16T07:50:44.515Z,64.55
2016-03-16T07:51:44.502Z,64.26
2016-03-16T07:52:44.520Z,64.17
2016-03-16T07:53:44.507Z,64.17
2016-03-16T07:54:44.510Z,64.64
2016-03-16T07:55:44.497Z,64.83
2016-03-16T07:56:44.516Z,65.02
2016-03-16T07:57:44.503Z,64.17
2016-03-16T07:58:44.506Z,64.83
2016-03-16T07:59:44.492Z,64.83
2016-03-16T08:00:44.495Z,65.02
2016-03-16T08:01:44.482Z,64.55
2016-03-16T08:02:44.485Z,64.74
2016-03-16T08:03:44.487Z,65.12
2016-03-16T08:04:44.490Z,65.12
2016-03-16T08:05:44.493Z,65.12
2016-03-16T08:06:44.476Z,65.31
2016-03-16T08:07:44.495Z,65.31
2016-03-16T08:08:44.497Z,64.99
2016-03-16T08:09:44.516Z,65.09
2016-03-16T08:10:44.486Z,65.09
2016-03-16T08:11:44.489Z,64.83
2016-03-16T08:12:44.492Z,65.31
2016-03-16T08:13:44.494Z,65.59
2016-03-16T08:14:44.482Z,65.02
2016-03-16T08:15:44.485Z,65.12
2016-03-16T08:16:44.488Z,64.93
2016-03-16T08:17:44.490Z,65.12
2016-03-16T08:18:44.477Z,64.93
2016-03-16T08:19:44.480Z,65.21
2016-03-16T08:20:44.483Z,65.12
2016-03-16T08:21:44.485Z,65.21
2016-03-16T08:22:44.471Z,65.12
2016-03-16T08:23:44.474Z,64.64
2016-03-16T08:24:44.462Z,64.83
2016-03-16T08:25:44.465Z,64.83
2016-03-16T08:26:44.468Z,64.93
2016-03-16T08:27:44.470Z,65.69
2016-03-16T08:28:44.457Z,65.69
2016-03-16T08:29:44.460Z,65.78
2016-03-16T08:30:44.462Z,65.12
2016-03-16T08:31:44.465Z,65.12
2016-03-16T08:32:44.468Z,64.93
2016-03-16T08:33:44.455Z,64.55
2016-03-16T08:34:44.473Z,64.93
2016-03-16T08:35:44.492Z,64.64
2016-03-16T08:36:44.463Z,63.92
2016-03-16T08:37:44.466Z,63.35
2016-03-16T08:38:44.469Z,62.59
2016-03-16T08:39:44.471Z,62.4
2016-03-16T08:40:44.458Z,62.02
2016-03-16T08:41:44.460Z,60.89
2016-03-16T08:42:44.463Z,60.16
2016-03-16T08:43:44.466Z,59.41
2016-03-16T08:44:44.453Z,58.93
2016-03-16T08:45:44.455Z,58.77
2016-03-16T08:46:44.459Z,56.49
2016-03-16T08:47:44.461Z,55.83
2016-03-16T08:48:44.449Z,54.82
2016-03-16T08:49:44.466Z,54.06
2016-03-16T08:50:44.501Z,53.2
2016-03-16T08:51:44.488Z,53.3
2016-03-16T08:52:44.459Z,53.58
2016-03-16T08:53:44.462Z,53.87
2016-03-16T08:54:44.449Z,53.87
2016-03-16T08:55:44.468Z,53.39
2016-03-16T08:56:44.454Z,53.68
2016-03-16T08:57:44.473Z,53.49
2016-03-16T08:58:44.460Z,53.39
2016-03-16T08:59:44.462Z,53.68
2016-03-16T09:00:44.465Z,53.2
2016-03-16T09:01:44.468Z,52.73
2016-03-16T09:02:44.470Z,53.94
2016-03-16T09:03:44.457Z,54.79
2016-03-16T09:04:44.459Z,55.64
2016-03-16T09:05:44.463Z,56.12
2016-03-16T09:06:44.470Z,55.07
2016-03-16T09:07:44.458Z,55.07
2016-03-16T09:08:44.461Z,55.74
2016-03-16T09:09:44.463Z,55.93
2016-03-16T09:10:44.466Z,55.64
2016-03-16T09:11:44.483Z,55.93
2016-03-16T09:12:44.471Z,56.49
2016-03-16T09:13:44.474Z,56.4
2016-03-16T09:14:44.491Z,56.21
2016-03-16T09:15:44.463Z,56.02
2016-03-16T09:16:44.466Z,55.36
2016-03-16T09:17:44.468Z,54.88
2016-03-16T09:18:44.502Z,54.79
2016-03-16T09:19:44.473Z,54.34
2016-03-16T09:20:44.479Z,54.32
2016-03-16T09:21:44.466Z,53.96
2016-03-16T09:22:44.485Z,54.06
2016-03-16T09:23:44.472Z,53.87
2016-03-16T09:24:44.471Z,53.49
2016-03-16T09:25:44.513Z,52.64
2016-03-16T09:26:44.459Z,52.16
2016-03-16T09:27:44.455Z,51.24
2016-03-16T09:28:44.475Z,50.38
2016-03-16T09:29:45.337Z,50.2
2016-03-16T09:30:44.808Z,50.01
2016-03-16T09:31:44.402Z,49.82
2016-03-16T09:32:44.384Z,50.2
2016-03-16T09:33:44.398Z,49.72
2016-03-16T09:34:44.224Z,48.61
2016-03-16T09:35:44.379Z,49.05
2016-03-16T09:36:44.380Z,49.43
2016-03-16T09:37:44.380Z,50.48
2016-03-16T09:38:44.381Z,51.14
2016-03-16T09:39:47.413Z,51.68
2016-03-16T09:40:44.382Z,52.92
2016-03-16T09:41:44.370Z,54.5
2016-03-16T09:42:44.403Z,56.02
2016-03-16T09:43:44.389Z,55.83
2016-03-16T09:44:44.406Z,56.4
2016-03-16T09:45:44.378Z,56.68
2016-03-16T09:46:44.381Z,57.16
2016-03-16T09:47:44.383Z,57.64
2016-03-16T09:48:44.386Z,56.49
2016-03-16T09:49:44.389Z,56.78
2016-03-16T09:50:44.391Z,57.44
2016-03-16T09:51:44.394Z,57.82
2016-03-16T09:52:44.380Z,58.01
2016-03-16T09:53:44.383Z,56.59
2016-03-16T09:54:44.386Z,56.49
2016-03-16T09:55:44.388Z,56.59
2016-03-16T09:56:44.392Z,57.32
2016-03-16T09:57:44.393Z,57.89
2016-03-16T09:58:44.413Z,57.7
2016-03-16T09:59:44.399Z,57.23
2016-03-16T10:00:44.386Z,58.07
2016-03-16T10:01:44.388Z,58.45
2016-03-16T10:02:44.392Z,58.55
2016-03-16T10:03:44.394Z,58.65
2016-03-16T10:04:44.412Z,57.79
2016-03-16T10:05:44.399Z,58.55
2016-03-16T10:06:44.418Z,57.79
2016-03-16T10:07:44.404Z,57.98
2016-03-16T10:08:44.424Z,57.42
2016-03-16T10:09:44.395Z,57.42
2016-03-16T10:10:44.412Z,57.42
2016-03-16T10:11:44.401Z,57.51
2016-03-16T10:12:44.418Z,57.6
2016-03-16T10:13:44.406Z,57.7
2016-03-16T10:14:44.423Z,57.64
2016-03-16T10:15:44.412Z,57.54
2016-03-16T10:16:44.414Z,57.73
2016-03-16T10:17:44.401Z,58.58
2016-03-16T10:18:44.420Z,58.58
2016-03-16T10:19:44.406Z,57.79
2016-03-16T10:20:44.409Z,57.73
2016-03-16T10:21:44.427Z,57.06
2016-03-16T10:22:44.415Z,57.6
2016-03-16T10:23:44.433Z,57.51
2016-03-16T10:24:44.420Z,57.32
2016-03-16T10:25:44.422Z,57.6
2016-03-16T10:26:44.409Z,57.42
2016-03-16T10:27:44.412Z,57.79
2016-03-16T10:28:44.414Z,58.17
2016-03-16T10:29:44.433Z,58.36
2016-03-16T10:30:44.420Z,57.73
2016-03-16T10:31:44.422Z,57.73
2016-03-16T10:32:44.425Z,57.25
2016-03-16T10:33:44.444Z,57.42
2016-03-16T10:34:44.430Z,57.6
2016-03-16T10:35:44.433Z,57.6
2016-03-16T10:36:44.421Z,57.32
2016-03-16T10:37:44.424Z,57.92
2016-03-16T10:38:44.426Z,57.51
2016-03-16T10:39:44.429Z,57.16
2016-03-16T10:40:44.415Z,56.66
2016-03-16T10:41:44.434Z,56.94
2016-03-16T10:42:44.437Z,57.42
2016-03-16T10:43:44.423Z,57.42
2016-03-16T10:44:44.442Z,57.98
2016-03-16T10:45:44.429Z,57.51
2016-03-16T10:46:44.462Z,57.13
2016-03-16T10:47:44.419Z,57.7
2016-03-16T10:48:44.453Z,57.51
2016-03-16T10:49:44.425Z,57.73
2016-03-16T10:50:44.442Z,57.35
2016-03-16T10:51:44.431Z,56.87
2016-03-16T10:52:44.433Z,56.3
2016-03-16T10:53:44.436Z,56.78
2016-03-16T10:54:44.266Z,56.87
2016-03-16T10:55:44.425Z,56.59
2016-03-16T10:56:44.444Z,56.78
2016-03-16T10:57:44.462Z,56.87
2016-03-16T10:58:44.433Z,57.54
2016-03-16T10:59:44.436Z,57.16
2016-03-16T11:00:44.438Z,56.87
2016-03-16T11:01:44.426Z,56.21
2016-03-16T11:02:44.444Z,56.97
2016-03-16T11:03:44.431Z,56.21
2016-03-16T11:04:44.434Z,56.4
2016-03-16T11:05:44.436Z,56.12
2016-03-16T11:06:44.439Z,56.87
2016-03-16T11:07:44.441Z,56.87
2016-03-16T11:08:44.429Z,56.97
2016-03-16T11:09:44.432Z,56.78
2016-03-16T11:10:44.435Z,56.4
2016-03-16T11:11:44.437Z,56.3
2016-03-16T11:12:44.440Z,56.4
2016-03-16T11:13:44.443Z,56.12
2016-03-16T11:14:44.445Z,55.93
2016-03-16T11:15:44.448Z,56.02
2016-03-16T11:16:44.451Z,56.4
2016-03-16T11:17:44.438Z,56.4
2016-03-16T11:18:44.440Z,56.78
2016-03-16T11:19:44.443Z,56.97
2016-03-16T11:20:44.446Z,56.59
2016-03-16T11:21:44.448Z,57.16
2016-03-16T11:22:44.435Z,57.06
2016-03-16T11:23:44.437Z,56.43
2016-03-16T11:24:44.457Z,55.45
2016-03-16T11:25:44.443Z,55.93
2016-03-16T11:26:44.445Z,55.74
2016-03-16T11:27:44.448Z,55.93
2016-03-16T11:28:44.436Z,55.83
2016-03-16T11:29:44.454Z,56.12
2016-03-16T11:30:44.442Z,55.83
2016-03-16T11:31:44.460Z,55.93
2016-03-16T11:32:44.447Z,55.83
2016-03-16T11:33:44.450Z,56.4
2016-03-16T11:34:44.436Z,56.05
2016-03-16T11:35:44.454Z,55.86
2016-03-16T11:36:44.442Z,54.82
2016-03-16T11:37:44.444Z,54.63
2016-03-16T11:38:44.447Z,55
2016-03-16T11:39:44.449Z,55
2016-03-16T11:40:44.453Z,55.96
2016-03-16T11:41:44.440Z,56.24
2016-03-16T11:42:44.442Z,56.24
2016-03-16T11:43:44.524Z,56.52
2016-03-16T11:44:44.448Z,56.9
2016-03-16T11:45:44.451Z,56.24
2016-03-16T11:46:44.453Z,54.91
2016-03-16T11:47:44.456Z,55.57
2016-03-16T11:48:44.443Z,55
2016-03-16T11:49:44.446Z,55
2016-03-16T11:50:44.448Z,55.57
2016-03-16T11:51:44.451Z,56.34
2016-03-16T11:52:44.470Z,56.43
2016-03-16T11:53:44.456Z,56.24
2016-03-16T11:54:44.459Z,56.9
2016-03-16T11:55:44.461Z,55.67
2016-03-16T11:56:44.449Z,54.25
2016-03-16T11:57:44.451Z,53.68
2016-03-16T11:58:44.454Z,53.2
2016-03-16T11:59:44.456Z,53.58
2016-03-16T12:00:44.444Z,54.44
2016-03-16T12:01:44.447Z,54.15
2016-03-16T12:02:44.449Z,54.25
2016-03-16T12:03:44.452Z,54.44
2016-03-16T12:04:44.455Z,54.82
2016-03-16T12:05:44.458Z,55.04
2016-03-16T12:06:44.460Z,54.94
2016-03-16T12:07:44.447Z,54.94
2016-03-16T12:08:44.450Z,54.66
2016-03-16T12:09:44.452Z,53.7
2016-03-16T12:10:44.471Z,53.99
2016-03-16T12:11:44.474Z,53.89
2016-03-16T12:12:44.444Z,53.99
2016-03-16T12:13:44.447Z,53.52
2016-03-16T12:14:44.450Z,53.61
2016-03-16T12:15:44.452Z,53.8
2016-03-16T12:16:44.455Z,53.33
2016-03-16T12:17:44.458Z,52.56
2016-03-16T12:18:44.461Z,51.9
2016-03-16T12:19:44.463Z,52.37
2016-03-16T12:20:44.451Z,52.66
2016-03-16T12:21:44.454Z,53.61
2016-03-16T12:22:44.456Z,54.08
2016-03-16T12:23:44.459Z,54.46
2016-03-16T12:24:44.461Z,54.56
2016-03-16T12:25:44.464Z,54.56
2016-03-16T12:26:44.451Z,54.56
2016-03-16T12:27:44.454Z,53.99
2016-03-16T12:28:44.456Z,53.42
2016-03-16T12:29:44.459Z,53.42
2016-03-16T12:30:44.447Z,53.99
2016-03-16T12:31:44.450Z,54.08
2016-03-16T12:32:44.467Z,53.52
2016-03-16T12:33:44.455Z,53.23
2016-03-16T12:34:44.458Z,53.23
2016-03-16T12:35:44.460Z,53.14
2016-03-16T12:36:44.463Z,51.72
2016-03-16T12:37:44.449Z,52.19
2016-03-16T12:38:44.453Z,52
2016-03-16T12:39:44.471Z,51.43
2016-03-16T12:40:44.474Z,52.09
2016-03-16T12:41:44.460Z,52.37
2016-03-16T12:42:44.463Z,52.12
2016-03-16T12:43:44.466Z,51.64
2016-03-16T12:44:44.469Z,51.45
2016-03-16T12:45:44.471Z,51.36
2016-03-16T12:46:44.457Z,51.83
2016-03-16T12:47:44.493Z,51.83
2016-03-16T12:48:44.463Z,50.89
2016-03-16T12:49:44.482Z,49.74
2016-03-16T12:50:44.453Z,49.93
2016-03-16T12:51:44.472Z,50.22
2016-03-16T12:52:44.459Z,49.84
2016-03-16T12:53:44.477Z,49.08
2016-03-16T12:54:44.464Z,49.93
2016-03-16T12:55:44.482Z,49.93